Time;durP1;ratioP1;P1;durP2;ratioP2;P2;SDS_P1;SDS_P2;PMS_P1;PMS_P2;Temp;Humidity;BMP_temperature;BMP_pressure;BME280_temperature;BME280_humidity;BME280_pressure;Samples;Min_cycle;Max_cycle;Signal;HPM_P1;HPM_P2
2021/01/15 00:11:16;;;;;;;65.37;20.20;;;;;;;-6.65;100.00;100503.94;10429446;84;21119;-81
2021/01/15 00:26:23;;;;;;;17.77;7.75;;;;;;;-6.50;100.00;100488.84;10720484;82;21163;-81
2021/01/15 00:41:28;;;;;;;21.57;8.30;;;;;;;-6.49;100.00;100494.36;10717757;83;21119;-81
2021/01/15 00:56:36;;;;;;;30.80;10.98;;;;;;;-6.68;100.00;100493.75;10434799;85;21155;-81
2021/01/15 01:11:41;;;;;;;19.90;9.18;;;;;;;-6.46;100.00;100505.80;10646296;82;21623;-82
2021/01/15 01:26:45;;;;;;;35.57;15.23;;;;;;;-6.61;100.00;100510.69;10621737;82;21203;-81
2021/01/15 01:41:49;;;;;;;;;;;;;;;-6.77;100.00;100514.30;10495660;84;21088;-81
2021/01/15 01:57:20;;;;;;;51.80;15.58;;;;;;;-6.72;100.00;100506.15;10505022;83;20315;-81
2021/01/15 02:12:38;;;;;;;36.42;12.80;;;;;;;-6.56;100.00;100547.21;10460676;83;21061;-81
2021/01/15 02:28:08;;;;;;;28.90;12.33;;;;;;;-6.44;100.00;100558.11;10588286;82;21070;-81
2021/01/15 02:43:14;;;;;;;30.95;11.40;;;;;;;-6.41;100.00;100560.64;10517246;84;21519;-82
2021/01/15 02:58:19;;;;;;;23.75;10.20;;;;;;;-6.29;100.00;100561.73;10501765;85;21165;-82
2021/01/15 03:13:28;;;;;;;;;;;;;;;-6.30;100.00;100574.08;10495272;83;21098;-81
2021/01/15 03:28:31;;;;;;;27.00;10.53;;;;;;;-6.68;100.00;100574.15;10429878;85;20193;-82
2021/01/15 03:43:34;;;;;;;;;;;;;;;-6.59;100.00;100571.92;10323752;86;21086;-82
2021/01/15 03:58:39;;;;;;;20.32;9.15;;;;;;;-6.65;100.00;100571.58;10310670;86;20205;-79
2021/01/15 04:13:44;;;;;;;26.50;10.32;;;;;;;-6.53;100.00;100571.86;10290787;86;21092;-81
2021/01/15 04:28:49;;;;;;;;;;;;;;;-6.30;100.00;100574.08;10647235;83;21067;-80
2021/01/15 04:43:56;;;;;;;23.83;10.93;;;;;;;-6.24;100.00;100581.67;10673696;83;20212;-81
2021/01/15 04:59:07;;;;;;;29.42;11.43;;;;;;;-6.15;100.00;100571.73;10654295;83;21866;-80
2021/01/15 05:14:14;;;;;;;60.50;21.10;;;;;;;-6.21;100.00;100553.52;10713677;81;21115;-80
2021/01/15 05:29:19;;;;;;;26.93;10.70;;;;;;;-6.05;100.00;100550.75;10636094;81;21074;-80
2021/01/15 05:44:33;;;;;;;18.27;8.70;;;;;;;-6.07;100.00;100541.84;10648456;83;21068;-82
2021/01/15 05:59:52;;;;;;;37.38;13.68;;;;;;;-5.88;100.00;100532.57;10722071;82;21186;-79
2021/01/15 06:14:59;;;;;;;203.83;62.15;;;;;;;-5.76;100.00;100521.30;10696356;81;21101;-80
2021/01/15 06:30:08;;;;;;;47.97;18.07;;;;;;;-5.42;100.00;100538.17;10725404;82;21088;-80
2021/01/15 06:45:15;;;;;;;179.70;70.10;;;;;;;-5.36;100.00;100533.38;10723106;83;21064;-80
2021/01/15 07:00:25;;;;;;;37.10;17.87;;;;;;;-5.00;100.00;100528.45;10018779;85;21075;-80
2021/01/15 07:15:32;;;;;;;375.38;150.25;;;;;;;-5.03;100.00;100524.23;10510117;83;21072;-81
2021/01/15 07:30:37;;;;;;;67.70;23.57;;;;;;;-5.15;100.00;100504.44;10687126;80;21095;-78
2021/01/15 07:45:46;;;;;;;64.95;29.00;;;;;;;-5.37;100.00;100500.98;10599797;83;21060;-79
2021/01/15 08:00:52;;;;;;;76.37;29.63;;;;;;;-5.40;100.00;100497.22;10326629;85;21529;-80
2021/01/15 08:15:57;;;;;;;172.78;66.57;;;;;;;-5.41;100.00;100496.80;10591879;83;21104;-81
2021/01/15 08:31:08;;;;;;;59.50;24.43;;;;;;;-5.14;100.00;100490.33;10642478;83;21096;-80
2021/01/15 08:46:17;;;;;;;104.45;37.88;;;;;;;-4.93;100.00;100474.97;10714982;83;21171;-80
2021/01/15 09:01:29;;;;;;;123.02;34.78;;;;;;;-4.55;100.00;100458.39;10662121;83;21039;-80
2021/01/15 09:16:35;;;;;;;38.75;15.40;;;;;;;-4.13;100.00;100457.39;10594077;83;21417;-81
2021/01/15 09:31:39;;;;;;;;;;;;;;;-3.74;100.00;100450.41;10648338;82;21008;-80
2021/01/15 09:46:45;;;;;;;75.35;28.32;;;;;;;-3.44;100.00;100470.17;10676039;83;20213;-80
2021/01/15 10:01:52;;;;;;;69.80;38.42;;;;;;;-3.37;100.00;100458.84;10686589;83;21124;-80
2021/01/15 10:16:57;;;;;;;68.02;24.05;;;;;;;-2.91;100.00;100466.52;10681036;83;21638;-80
2021/01/15 10:32:03;;;;;;;80.40;30.27;;;;;;;-2.62;100.00;100460.13;10497095;82;21537;-78
2021/01/15 10:47:08;;;;;;;54.93;20.20;;;;;;;-2.06;100.00;100487.48;10432704;83;21019;-79
2021/01/15 11:02:12;;;;;;;108.70;39.58;;;;;;;-1.75;100.00;100514.80;10403648;85;21039;-80
2021/01/15 11:17:17;;;;;;;57.88;26.62;;;;;;;-1.76;100.00;100527.25;10429452;85;21048;-79
2021/01/15 11:32:21;;;;;;;95.80;39.90;;;;;;;-1.94;100.00;100541.11;10357627;85;21251;-82
2021/01/15 11:47:27;;;;;;;54.13;24.47;;;;;;;-1.43;100.00;100533.45;10568296;83;21100;-81
2021/01/15 12:02:32;;;;;;;41.25;16.75;;;;;;;-1.38;100.00;100537.99;10306745;86;21175;-81
2021/01/15 12:17:36;;;;;;;56.65;27.37;;;;;;;-0.71;100.00;100551.95;10615878;82;21072;-81
2021/01/15 12:32:43;;;;;;;115.55;47.67;;;;;;;-0.19;100.00;100552.98;10656670;80;21086;-85
2021/01/15 12:47:48;;;;;;;84.72;33.85;;;;;;;-0.19;100.00;100556.84;10645241;83;21862;-80
2021/01/15 13:02:52;;;;;;;59.25;23.30;;;;;;;0.08;100.00;100560.52;10711429;83;21087;-85
2021/01/15 13:17:58;;;;;;;66.20;28.87;;;;;;;0.37;100.00;100555.48;10604740;81;21480;-82
2021/01/15 13:33:06;;;;;;;37.05;15.60;;;;;;;4.11;99.27;100586.59;10640765;81;21091;-81
2021/01/15 13:48:11;;;;;;;52.00;21.75;;;;;;;5.10;76.01;100606.88;10373176;85;21072;-81
2021/01/15 14:03:15;;;;;;;50.67;19.45;;;;;;;4.08;68.99;100614.48;10633542;82;21083;-80
2021/01/15 14:18:19;;;;;;;164.13;57.48;;;;;;;2.38;66.51;100638.82;10682245;83;21100;-84
2021/01/15 14:33:24;;;;;;;244.03;71.35;;;;;;;-1.12;72.04;100646.95;10681792;80;21338;-80
2021/01/15 14:48:29;;;;;;;818.73;331.97;;;;;;;-2.63;76.14;100673.77;10670396;81;21111;-82
2021/01/15 15:03:34;;;;;;;394.95;117.97;;;;;;;-3.49;79.48;100684.48;10665043;81;21091;-81
2021/01/15 15:18:40;;;;;;;500.02;155.75;;;;;;;-4.23;82.74;100683.09;10698660;81;21194;-82
2021/01/15 15:33:47;;;;;;;156.40;40.78;;;;;;;-4.79;84.93;100691.42;10758721;81;21060;-81
2021/01/15 15:48:54;;;;;;;111.32;33.75;;;;;;;-5.28;86.78;100702.06;10800853;81;21079;-80
2021/01/15 16:03:59;;;;;;;319.02;89.92;;;;;;;-5.65;88.62;100712.40;10736102;82;21082;-79
2021/01/15 16:19:02;;;;;;;;;;;;;;;-5.87;90.69;100706.31;10748953;82;21130;-79
2021/01/15 16:34:06;;;;;;;493.02;164.93;;;;;;;-5.96;92.09;100714.55;10753562;82;20634;-79
2021/01/15 16:49:11;;;;;;;1213.40;347.73;;;;;;;-6.05;92.93;100704.87;10717429;82;21075;-81
2021/01/15 17:04:17;;;;;;;1084.28;299.30;;;;;;;-6.60;93.73;100702.55;10742041;82;21541;-82
2021/01/15 17:19:22;;;;;;;281.98;91.40;;;;;;;-7.13;94.72;100721.74;10523078;82;21132;-81
2021/01/15 17:34:27;;;;;;;241.25;76.75;;;;;;;-7.66;95.72;100725.92;10341392;85;21499;-81
2021/01/15 17:49:32;;;;;;;300.87;100.78;;;;;;;-8.43;98.51;100741.52;10228402;86;21013;-82
2021/01/15 18:04:36;;;;;;;267.73;85.20;;;;;;;-8.64;99.31;100748.80;10204559;86;21049;-81
2021/01/15 18:19:41;;;;;;;491.85;141.10;;;;;;;-8.75;100.00;100761.54;10284779;86;21239;-81
2021/01/15 18:34:45;;;;;;;201.52;70.22;;;;;;;-8.58;99.97;100773.84;10668564;81;21126;-80
2021/01/15 18:49:51;;;;;;;175.10;55.03;;;;;;;-8.29;100.00;100776.69;10777222;82;21995;-82
2021/01/15 19:04:56;;;;;;;136.03;41.42;;;;;;;-8.09;100.00;100779.61;10759405;81;21051;-82
2021/01/15 19:20:01;;;;;;;200.43;62.33;;;;;;;-7.89;100.00;100780.40;10709319;81;21063;-81
2021/01/15 19:35:10;;;;;;;279.98;79.97;;;;;;;-7.80;100.00;100790.13;10661483;81;22175;-81
2021/01/15 19:50:17;;;;;;;376.27;99.22;;;;;;;-7.69;100.00;100769.27;10610274;83;21036;-81
2021/01/15 20:05:21;;;;;;;190.62;55.60;;;;;;;-7.53;100.00;100765.77;10655176;81;21577;-80
2021/01/15 20:20:26;;;;;;;413.22;108.27;;;;;;;-7.22;100.00;100777.06;10711853;83;21080;-80
2021/01/15 20:35:30;;;;;;;172.28;51.08;;;;;;;-7.05;100.00;100770.57;10771438;81;22163;-79
2021/01/15 20:50:35;;;;;;;105.45;30.20;;;;;;;-6.86;100.00;100775.08;10803866;81;21059;-80
2021/01/15 21:05:42;;;;;;;351.30;114.35;;;;;;;-6.67;100.00;100785.58;10797181;82;21012;-79
2021/01/15 21:20:47;;;;;;;115.95;36.40;;;;;;;-6.46;100.00;100784.53;10803531;81;21023;-80
2021/01/15 21:35:52;;;;;;;200.87;65.00;;;;;;;-6.42;100.00;100770.42;10750921;82;21127;-80
2021/01/15 21:50:57;;;;;;;179.25;51.63;;;;;;;-6.31;100.00;100785.63;10709701;83;21553;-80
2021/01/15 22:06:02;;;;;;;152.97;44.98;;;;;;;-6.26;100.00;100780.05;10690151;81;21092;-80
2021/01/15 22:21:06;;;;;;;177.78;57.27;;;;;;;-6.19;100.00;100779.13;10598857;83;21053;-81
2021/01/15 22:36:11;;;;;;;169.10;54.83;;;;;;;-6.11;100.00;100783.30;10692968;81;21047;-81
2021/01/15 22:51:16;;;;;;;209.47;65.10;;;;;;;-6.00;100.00;100769.11;10569316;82;21543;-80
2021/01/15 23:06:21;;;;;;;180.10;54.30;;;;;;;-6.02;100.00;100751.25;10330009;83;21000;-81
2021/01/15 23:21:25;;;;;;;142.65;44.45;;;;;;;-6.02;100.00;100751.25;10526829;84;21504;-81
2021/01/15 23:36:30;;;;;;;166.80;51.87;;;;;;;-6.14;100.00;100760.35;10416855;84;21152;-81
2021/01/15 23:51:34;;;;;;;;;;;;;;;-5.93;100.00;100754.94;10186293;86;21064;-80
